sensor_id;sensor_type;location;lat;lon;timestamp;P1;durP1;ratioP1;P2;durP2;ratioP2
61393;SDS011;48555;50.952;-0.120;2023-03-01T00:02:06;11.85;;;8.93;;
61393;SDS011;48555;50.952;-0.120;2023-03-01T00:04:31;12.27;;;9.65;;
61393;SDS011;48555;50.952;-0.120;2023-03-01T00:06:57;13.73;;;9.77;;
61393;SDS011;48555;50.952;-0.120;2023-03-01T00:09:22;14.23;;;10.52;;
61393;SDS011;48555;50.952;-0.120;2023-03-01T00:11:48;15.10;;;10.48;;
61393;SDS011;48555;50.952;-0.120;2023-03-01T00:14:13;13.10;;;10.05;;
61393;SDS011;48555;50.952;-0.120;2023-03-01T00:16:42;12.20;;;10.10;;
61393;SDS011;48555;50.952;-0.120;2023-03-01T00:19:12;14.60;;;11.00;;
61393;SDS011;48555;50.952;-0.120;2023-03-01T00:21:40;13.68;;;10.68;;
61393;SDS011;48555;50.952;-0.120;2023-03-01T00:24:06;13.30;;;9.57;;
61393;SDS011;48555;50.952;-0.120;2023-03-01T00:26:32;17.45;;;11.52;;
61393;SDS011;48555;50.952;-0.120;2023-03-01T00:28:57;16.88;;;12.65;;
61393;SDS011;48555;50.952;-0.120;2023-03-01T00:31:24;15.25;;;11.20;;
61393;SDS011;48555;50.952;-0.120;2023-03-01T00:33:53;15.65;;;12.07;;
61393;SDS011;48555;50.952;-0.120;2023-03-01T00:36:23;15.27;;;11.52;;
61393;SDS011;48555;50.952;-0.120;2023-03-01T00:38:53;16.73;;;12.20;;
61393;SDS011;48555;50.952;-0.120;2023-03-01T00:41:20;14.73;;;11.45;;
61393;SDS011;48555;50.952;-0.120;2023-03-01T00:43:49;15.98;;;11.48;;
61393;SDS011;48555;50.952;-0.120;2023-03-01T00:46:17;16.13;;;12.10;;
61393;SDS011;48555;50.952;-0.120;2023-03-01T00:48:44;16.23;;;12.48;;
61393;SDS011;48555;50.952;-0.120;2023-03-01T00:51:11;17.67;;;13.00;;
61393;SDS011;48555;50.952;-0.120;2023-03-01T00:53:39;15.07;;;11.82;;
61393;SDS011;48555;50.952;-0.120;2023-03-01T00:56:05;19.33;;;12.77;;
61393;SDS011;48555;50.952;-0.120;2023-03-01T00:58:32;16.83;;;12.90;;
61393;SDS011;48555;50.952;-0.120;2023-03-01T01:00:58;17.83;;;12.80;;
61393;SDS011;48555;50.952;-0.120;2023-03-01T01:03:24;16.67;;;12.98;;
61393;SDS011;48555;50.952;-0.120;2023-03-01T01:05:52;17.08;;;12.75;;
61393;SDS011;48555;50.952;-0.120;2023-03-01T01:08:18;18.90;;;12.82;;
61393;SDS011;48555;50.952;-0.120;2023-03-01T01:10:45;16.42;;;12.40;;
61393;SDS011;48555;50.952;-0.120;2023-03-01T01:13:11;16.92;;;13.07;;
61393;SDS011;48555;50.952;-0.120;2023-03-01T01:15:36;17.55;;;11.52;;
61393;SDS011;48555;50.952;-0.120;2023-03-01T01:18:02;17.23;;;12.20;;
61393;SDS011;48555;50.952;-0.120;2023-03-01T01:20:27;17.08;;;12.23;;
61393;SDS011;48555;50.952;-0.120;2023-03-01T01:22:53;16.42;;;12.05;;
61393;SDS011;48555;50.952;-0.120;2023-03-01T01:25:19;16.50;;;12.60;;
61393;SDS011;48555;50.952;-0.120;2023-03-01T01:27:44;16.25;;;11.73;;
61393;SDS011;48555;50.952;-0.120;2023-03-01T01:30:10;15.73;;;11.63;;
61393;SDS011;48555;50.952;-0.120;2023-03-01T01:32:36;16.77;;;12.05;;
61393;SDS011;48555;50.952;-0.120;2023-03-01T01:35:01;20.42;;;13.90;;
61393;SDS011;48555;50.952;-0.120;2023-03-01T01:37:27;16.80;;;12.68;;
61393;SDS011;48555;50.952;-0.120;2023-03-01T01:39:56;17.63;;;12.65;;
61393;SDS011;48555;50.952;-0.120;2023-03-01T01:42:26;17.13;;;12.63;;
61393;SDS011;48555;50.952;-0.120;2023-03-01T01:47:55;17.75;;;13.45;;
61393;SDS011;48555;50.952;-0.120;2023-03-01T01:50:25;18.48;;;12.98;;
61393;SDS011;48555;50.952;-0.120;2023-03-01T01:52:52;17.92;;;13.02;;
61393;SDS011;48555;50.952;-0.120;2023-03-01T01:55:21;21.00;;;13.23;;
61393;SDS011;48555;50.952;-0.120;2023-03-01T01:57:53;22.15;;;15.15;;
61393;SDS011;48555;50.952;-0.120;2023-03-01T02:00:22;18.42;;;12.90;;
61393;SDS011;48555;50.952;-0.120;2023-03-01T02:02:51;19.45;;;14.27;;
61393;SDS011;48555;50.952;-0.120;2023-03-01T02:05:24;21.92;;;15.27;;
61393;SDS011;48555;50.952;-0.120;2023-03-01T02:07:57;19.77;;;14.80;;
61393;SDS011;48555;50.952;-0.120;2023-03-01T02:10:24;17.45;;;14.25;;
61393;SDS011;48555;50.952;-0.120;2023-03-01T02:12:51;21.17;;;15.15;;
61393;SDS011;48555;50.952;-0.120;2023-03-01T02:15:18;20.85;;;14.80;;
61393;SDS011;48555;50.952;-0.120;2023-03-01T02:17:43;20.15;;;14.52;;
61393;SDS011;48555;50.952;-0.120;2023-03-01T02:22:56;22.08;;;16.48;;
61393;SDS011;48555;50.952;-0.120;2023-03-01T02:30:43;21.42;;;15.45;;
61393;SDS011;48555;50.952;-0.120;2023-03-01T02:33:30;24.58;;;16.15;;
61393;SDS011;48555;50.952;-0.120;2023-03-01T02:36:01;21.40;;;16.55;;
61393;SDS011;48555;50.952;-0.120;2023-03-01T02:38:31;19.58;;;15.63;;
61393;SDS011;48555;50.952;-0.120;2023-03-01T02:40:57;21.73;;;16.50;;
61393;SDS011;48555;50.952;-0.120;2023-03-01T02:43:23;20.80;;;15.07;;
61393;SDS011;48555;50.952;-0.120;2023-03-01T02:45:56;20.70;;;16.23;;
61393;SDS011;48555;50.952;-0.120;2023-03-01T02:48:23;21.05;;;15.18;;
61393;SDS011;48555;50.952;-0.120;2023-03-01T02:56:47;20.88;;;14.77;;
61393;SDS011;48555;50.952;-0.120;2023-03-01T02:59:13;22.25;;;16.10;;
61393;SDS011;48555;50.952;-0.120;2023-03-01T03:01:42;20.73;;;14.65;;
61393;SDS011;48555;50.952;-0.120;2023-03-01T03:04:09;20.90;;;15.20;;
61393;SDS011;48555;50.952;-0.120;2023-03-01T03:06:36;19.75;;;15.45;;
61393;SDS011;48555;50.952;-0.120;2023-03-01T03:09:02;22.90;;;14.82;;
61393;SDS011;48555;50.952;-0.120;2023-03-01T03:11:28;19.95;;;15.38;;
61393;SDS011;48555;50.952;-0.120;2023-03-01T03:13:54;21.05;;;16.02;;
61393;SDS011;48555;50.952;-0.120;2023-03-01T03:16:20;21.55;;;15.38;;
61393;SDS011;48555;50.952;-0.120;2023-03-01T03:18:46;17.80;;;13.32;;
61393;SDS011;48555;50.952;-0.120;2023-03-01T03:21:12;18.02;;;14.27;;
61393;SDS011;48555;50.952;-0.120;2023-03-01T03:23:37;22.35;;;15.18;;
61393;SDS011;48555;50.952;-0.120;2023-03-01T03:26:04;18.95;;;14.98;;
61393;SDS011;48555;50.952;-0.120;2023-03-01T03:28:30;19.33;;;15.07;;
61393;SDS011;48555;50.952;-0.120;2023-03-01T03:30:57;21.17;;;15.18;;
61393;SDS011;48555;50.952;-0.120;2023-03-01T03:33:23;19.15;;;14.55;;
61393;SDS011;48555;50.952;-0.120;2023-03-01T03:35:49;19.58;;;14.45;;
61393;SDS011;48555;50.952;-0.120;2023-03-01T03:38:16;20.27;;;15.55;;
61393;SDS011;48555;50.952;-0.120;2023-03-01T03:40:45;20.88;;;16.15;;
61393;SDS011;48555;50.952;-0.120;2023-03-01T03:43:16;20.00;;;15.73;;
61393;SDS011;48555;50.952;-0.120;2023-03-01T03:45:46;21.77;;;15.75;;
61393;SDS011;48555;50.952;-0.120;2023-03-01T03:48:13;21.15;;;15.60;;
61393;SDS011;48555;50.952;-0.120;2023-03-01T03:50:39;20.95;;;15.30;;
61393;SDS011;48555;50.952;-0.120;2023-03-01T03:53:07;21.38;;;16.20;;
61393;SDS011;48555;50.952;-0.120;2023-03-01T03:55:36;20.92;;;15.10;;
61393;SDS011;48555;50.952;-0.120;2023-03-01T03:58:04;22.58;;;15.40;;
61393;SDS011;48555;50.952;-0.120;2023-03-01T04:00:32;18.92;;;14.70;;
61393;SDS011;48555;50.952;-0.120;2023-03-01T04:03:02;21.58;;;15.68;;
61393;SDS011;48555;50.952;-0.120;2023-03-01T04:05:28;19.60;;;14.90;;
61393;SDS011;48555;50.952;-0.120;2023-03-01T04:07:54;20.08;;;15.02;;
61393;SDS011;48555;50.952;-0.120;2023-03-01T04:10:26;20.10;;;15.15;;
61393;SDS011;48555;50.952;-0.120;2023-03-01T04:12:52;20.13;;;14.50;;
61393;SDS011;48555;50.952;-0.120;2023-03-01T04:15:17;21.88;;;15.70;;
61393;SDS011;48555;50.952;-0.120;2023-03-01T04:17:44;21.08;;;14.52;;
61393;SDS011;48555;50.952;-0.120;2023-03-01T04:20:12;22.30;;;15.05;;
61393;SDS011;48555;50.952;-0.120;2023-03-01T04:22:42;20.33;;;15.27;;
61393;SDS011;48555;50.952;-0.120;2023-03-01T04:25:08;20.63;;;13.73;;
61393;SDS011;48555;50.952;-0.120;2023-03-01T04:27:34;19.23;;;14.27;;
61393;SDS011;48555;50.952;-0.120;2023-03-01T04:30:01;19.77;;;14.05;;
61393;SDS011;48555;50.952;-0.120;2023-03-01T04:32:28;18.45;;;12.45;;
61393;SDS011;48555;50.952;-0.120;2023-03-01T04:34:54;18.00;;;12.82;;
61393;SDS011;48555;50.952;-0.120;2023-03-01T04:37:19;17.83;;;13.27;;
61393;SDS011;48555;50.952;-0.120;2023-03-01T04:39:44;17.25;;;13.27;;
61393;SDS011;48555;50.952;-0.120;2023-03-01T04:42:13;18.67;;;13.15;;
61393;SDS011;48555;50.952;-0.120;2023-03-01T04:44:39;19.63;;;13.88;;
61393;SDS011;48555;50.952;-0.120;2023-03-01T04:47:04;18.45;;;13.50;;
61393;SDS011;48555;50.952;-0.120;2023-03-01T04:49:30;19.90;;;13.45;;
61393;SDS011;48555;50.952;-0.120;2023-03-01T04:51:56;15.90;;;11.95;;
61393;SDS011;48555;50.952;-0.120;2023-03-01T04:54:23;19.33;;;12.90;;
61393;SDS011;48555;50.952;-0.120;2023-03-01T04:56:48;16.83;;;11.75;;
61393;SDS011;48555;50.952;-0.120;2023-03-01T04:59:14;17.30;;;12.38;;
61393;SDS011;48555;50.952;-0.120;2023-03-01T05:01:39;16.52;;;12.80;;
61393;SDS011;48555;50.952;-0.120;2023-03-01T05:04:07;16.85;;;13.20;;
61393;SDS011;48555;50.952;-0.120;2023-03-01T05:06:37;19.67;;;13.82;;
61393;SDS011;48555;50.952;-0.120;2023-03-01T05:09:04;18.98;;;13.05;;
61393;SDS011;48555;50.952;-0.120;2023-03-01T05:11:30;19.92;;;13.68;;
61393;SDS011;48555;50.952;-0.120;2023-03-01T05:13:58;19.48;;;13.57;;
61393;SDS011;48555;50.952;-0.120;2023-03-01T05:16:24;21.05;;;13.80;;
61393;SDS011;48555;50.952;-0.120;2023-03-01T05:18:49;20.00;;;13.77;;
61393;SDS011;48555;50.952;-0.120;2023-03-01T05:21:17;16.92;;;12.23;;
61393;SDS011;48555;50.952;-0.120;2023-03-01T05:23:43;17.98;;;12.70;;
61393;SDS011;48555;50.952;-0.120;2023-03-01T05:26:09;20.90;;;13.70;;
61393;SDS011;48555;50.952;-0.120;2023-03-01T05:28:34;20.40;;;12.52;;
61393;SDS011;48555;50.952;-0.120;2023-03-01T05:31:00;21.83;;;13.70;;
61393;SDS011;48555;50.952;-0.120;2023-03-01T05:33:26;18.90;;;12.60;;
61393;SDS011;48555;50.952;-0.120;2023-03-01T05:35:52;18.83;;;12.85;;
61393;SDS011;48555;50.952;-0.120;2023-03-01T05:38:18;19.80;;;12.70;;
61393;SDS011;48555;50.952;-0.120;2023-03-01T05:40:46;16.80;;;11.65;;
61393;SDS011;48555;50.952;-0.120;2023-03-01T05:43:13;17.05;;;10.48;;
61393;SDS011;48555;50.952;-0.120;2023-03-01T05:45:40;20.48;;;12.30;;
61393;SDS011;48555;50.952;-0.120;2023-03-01T05:48:06;14.88;;;9.77;;
61393;SDS011;48555;50.952;-0.120;2023-03-01T05:50:34;15.18;;;10.88;;
61393;SDS011;48555;50.952;-0.120;2023-03-01T05:53:02;16.08;;;10.50;;
61393;SDS011;48555;50.952;-0.120;2023-03-01T05:55:33;17.38;;;10.23;;
61393;SDS011;48555;50.952;-0.120;2023-03-01T05:58:00;14.98;;;10.43;;
61393;SDS011;48555;50.952;-0.120;2023-03-01T06:00:27;15.73;;;10.02;;
61393;SDS011;48555;50.952;-0.120;2023-03-01T06:02:54;18.38;;;10.88;;
61393;SDS011;48555;50.952;-0.120;2023-03-01T06:05:20;15.80;;;10.27;;
61393;SDS011;48555;50.952;-0.120;2023-03-01T06:07:46;15.05;;;9.93;;
61393;SDS011;48555;50.952;-0.120;2023-03-01T06:10:11;14.30;;;9.98;;
61393;SDS011;48555;50.952;-0.120;2023-03-01T06:12:38;14.02;;;9.00;;
61393;SDS011;48555;50.952;-0.120;2023-03-01T06:15:05;16.13;;;10.90;;
61393;SDS011;48555;50.952;-0.120;2023-03-01T06:17:32;14.93;;;9.40;;
61393;SDS011;48555;50.952;-0.120;2023-03-01T06:20:05;14.07;;;9.32;;
61393;SDS011;48555;50.952;-0.120;2023-03-01T06:22:34;15.15;;;9.05;;
61393;SDS011;48555;50.952;-0.120;2023-03-01T06:24:59;13.75;;;9.90;;
61393;SDS011;48555;50.952;-0.120;2023-03-01T06:27:24;19.23;;;10.05;;
61393;SDS011;48555;50.952;-0.120;2023-03-01T06:29:50;16.40;;;9.55;;
61393;SDS011;48555;50.952;-0.120;2023-03-01T06:32:15;13.48;;;8.95;;
61393;SDS011;48555;50.952;-0.120;2023-03-01T06:34:41;13.98;;;8.40;;
61393;SDS011;48555;50.952;-0.120;2023-03-01T06:37:07;14.13;;;8.43;;
61393;SDS011;48555;50.952;-0.120;2023-03-01T06:39:32;14.95;;;8.95;;
61393;SDS011;48555;50.952;-0.120;2023-03-01T06:41:58;12.82;;;9.18;;
61393;SDS011;48555;50.952;-0.120;2023-03-01T06:44:24;14.52;;;9.52;;
61393;SDS011;48555;50.952;-0.120;2023-03-01T06:46:50;13.40;;;8.95;;
61393;SDS011;48555;50.952;-0.120;2023-03-01T06:49:15;17.98;;;9.98;;
61393;SDS011;48555;50.952;-0.120;2023-03-01T06:51:42;14.07;;;8.75;;
61393;SDS011;48555;50.952;-0.120;2023-03-01T06:54:08;15.63;;;8.73;;
61393;SDS011;48555;50.952;-0.120;2023-03-01T06:56:33;14.07;;;8.82;;
61393;SDS011;48555;50.952;-0.120;2023-03-01T06:58:59;13.45;;;8.52;;
61393;SDS011;48555;50.952;-0.120;2023-03-01T07:01:24;12.32;;;7.78;;
61393;SDS011;48555;50.952;-0.120;2023-03-01T07:03:50;12.52;;;8.68;;
61393;SDS011;48555;50.952;-0.120;2023-03-01T07:06:15;12.38;;;7.85;;
61393;SDS011;48555;50.952;-0.120;2023-03-01T07:08:41;12.80;;;8.57;;
61393;SDS011;48555;50.952;-0.120;2023-03-01T07:11:06;13.63;;;9.35;;
61393;SDS011;48555;50.952;-0.120;2023-03-01T07:13:32;13.38;;;9.27;;
61393;SDS011;48555;50.952;-0.120;2023-03-01T07:15:57;13.40;;;9.15;;
61393;SDS011;48555;50.952;-0.120;2023-03-01T07:18:23;11.95;;;8.10;;
61393;SDS011;48555;50.952;-0.120;2023-03-01T07:20:48;14.18;;;9.27;;
61393;SDS011;48555;50.952;-0.120;2023-03-01T07:23:14;12.95;;;8.65;;
61393;SDS011;48555;50.952;-0.120;2023-03-01T07:25:40;12.27;;;8.38;;
61393;SDS011;48555;50.952;-0.120;2023-03-01T07:28:05;13.07;;;9.05;;
61393;SDS011;48555;50.952;-0.120;2023-03-01T07:30:30;14.23;;;9.57;;
61393;SDS011;48555;50.952;-0.120;2023-03-01T07:32:57;13.35;;;9.77;;
61393;SDS011;48555;50.952;-0.120;2023-03-01T07:35:23;14.20;;;9.10;;
61393;SDS011;48555;50.952;-0.120;2023-03-01T07:37:51;13.35;;;8.60;;
61393;SDS011;48555;50.952;-0.120;2023-03-01T07:40:17;13.25;;;8.23;;
61393;SDS011;48555;50.952;-0.120;2023-03-01T07:42:42;12.00;;;8.15;;
61393;SDS011;48555;50.952;-0.120;2023-03-01T07:45:08;12.18;;;8.25;;
61393;SDS011;48555;50.952;-0.120;2023-03-01T07:47:33;11.73;;;8.13;;
61393;SDS011;48555;50.952;-0.120;2023-03-01T07:49:59;11.35;;;7.90;;
61393;SDS011;48555;50.952;-0.120;2023-03-01T07:52:26;10.68;;;7.50;;
61393;SDS011;48555;50.952;-0.120;2023-03-01T07:54:51;11.15;;;7.55;;
61393;SDS011;48555;50.952;-0.120;2023-03-01T07:57:16;11.55;;;7.55;;
61393;SDS011;48555;50.952;-0.120;2023-03-01T07:59:42;14.38;;;8.40;;
61393;SDS011;48555;50.952;-0.120;2023-03-01T08:02:08;13.50;;;7.35;;
61393;SDS011;48555;50.952;-0.120;2023-03-01T08:04:34;10.65;;;7.50;;
61393;SDS011;48555;50.952;-0.120;2023-03-01T08:06:59;13.20;;;8.18;;
61393;SDS011;48555;50.952;-0.120;2023-03-01T08:09:25;13.07;;;7.63;;
61393;SDS011;48555;50.952;-0.120;2023-03-01T08:11:50;12.00;;;7.43;;
61393;SDS011;48555;50.952;-0.120;2023-03-01T08:14:16;12.02;;;7.03;;
61393;SDS011;48555;50.952;-0.120;2023-03-01T08:16:41;13.20;;;7.75;;
61393;SDS011;48555;50.952;-0.120;2023-03-01T08:19:08;12.43;;;7.22;;
61393;SDS011;48555;50.952;-0.120;2023-03-01T08:21:34;12.35;;;6.90;;
61393;SDS011;48555;50.952;-0.120;2023-03-01T08:24:03;12.60;;;7.80;;
61393;SDS011;48555;50.952;-0.120;2023-03-01T08:26:31;13.60;;;7.25;;
61393;SDS011;48555;50.952;-0.120;2023-03-01T08:28:57;13.00;;;7.57;;
61393;SDS011;48555;50.952;-0.120;2023-03-01T08:31:26;10.10;;;7.13;;
61393;SDS011;48555;50.952;-0.120;2023-03-01T08:33:55;10.13;;;7.05;;
61393;SDS011;48555;50.952;-0.120;2023-03-01T08:36:23;13.75;;;7.53;;
61393;SDS011;48555;50.952;-0.120;2023-03-01T08:38:52;10.98;;;6.80;;
61393;SDS011;48555;50.952;-0.120;2023-03-01T08:41:18;10.60;;;6.72;;
61393;SDS011;48555;50.952;-0.120;2023-03-01T08:43:43;9.50;;;6.07;;
61393;SDS011;48555;50.952;-0.120;2023-03-01T08:46:10;9.02;;;6.00;;
61393;SDS011;48555;50.952;-0.120;2023-03-01T08:48:36;9.43;;;6.47;;
61393;SDS011;48555;50.952;-0.120;2023-03-01T08:51:11;8.65;;;6.00;;
61393;SDS011;48555;50.952;-0.120;2023-03-01T08:53:43;10.00;;;5.72;;
61393;SDS011;48555;50.952;-0.120;2023-03-01T08:56:10;7.85;;;5.57;;
61393;SDS011;48555;50.952;-0.120;2023-03-01T08:58:36;9.35;;;5.45;;
61393;SDS011;48555;50.952;-0.120;2023-03-01T09:01:06;7.35;;;5.15;;
61393;SDS011;48555;50.952;-0.120;2023-03-01T09:03:33;7.28;;;5.35;;
61393;SDS011;48555;50.952;-0.120;2023-03-01T09:06:02;7.03;;;4.90;;
61393;SDS011;48555;50.952;-0.120;2023-03-01T09:08:28;7.45;;;5.10;;
61393;SDS011;48555;50.952;-0.120;2023-03-01T09:10:54;8.70;;;4.72;;
61393;SDS011;48555;50.952;-0.120;2023-03-01T09:13:19;5.70;;;4.10;;
61393;SDS011;48555;50.952;-0.120;2023-03-01T09:15:45;7.80;;;4.25;;
61393;SDS011;48555;50.952;-0.120;2023-03-01T09:18:10;7.25;;;4.15;;
61393;SDS011;48555;50.952;-0.120;2023-03-01T09:20:35;5.80;;;3.90;;
61393;SDS011;48555;50.952;-0.120;2023-03-01T09:23:01;5.30;;;3.42;;
61393;SDS011;48555;50.952;-0.120;2023-03-01T09:25:26;5.80;;;3.88;;
61393;SDS011;48555;50.952;-0.120;2023-03-01T09:27:52;5.55;;;3.50;;
61393;SDS011;48555;50.952;-0.120;2023-03-01T09:30:18;5.78;;;3.30;;
61393;SDS011;48555;50.952;-0.120;2023-03-01T09:32:44;5.90;;;3.50;;
61393;SDS011;48555;50.952;-0.120;2023-03-01T09:35:10;5.07;;;3.30;;
61393;SDS011;48555;50.952;-0.120;2023-03-01T09:37:36;5.35;;;3.17;;
61393;SDS011;48555;50.952;-0.120;2023-03-01T09:40:03;4.90;;;3.17;;
61393;SDS011;48555;50.952;-0.120;2023-03-01T09:42:32;5.50;;;3.17;;
61393;SDS011;48555;50.952;-0.120;2023-03-01T09:45:07;4.90;;;3.30;;
61393;SDS011;48555;50.952;-0.120;2023-03-01T09:47:40;5.38;;;2.80;;
61393;SDS011;48555;50.952;-0.120;2023-03-01T09:55:00;6.65;;;3.65;;
61393;SDS011;48555;50.952;-0.120;2023-03-01T10:13:04;4.85;;;3.10;;
61393;SDS011;48555;50.952;-0.120;2023-03-01T10:15:40;5.20;;;3.22;;
61393;SDS011;48555;50.952;-0.120;2023-03-01T10:18:14;5.65;;;2.95;;
61393;SDS011;48555;50.952;-0.120;2023-03-01T10:23:15;4.18;;;2.65;;
61393;SDS011;48555;50.952;-0.120;2023-03-01T10:31:02;6.20;;;2.97;;
61393;SDS011;48555;50.952;-0.120;2023-03-01T10:33:32;4.72;;;2.92;;
61393;SDS011;48555;50.952;-0.120;2023-03-01T10:36:02;4.68;;;2.50;;
61393;SDS011;48555;50.952;-0.120;2023-03-01T10:38:30;4.50;;;2.55;;
61393;SDS011;48555;50.952;-0.120;2023-03-01T10:41:11;6.30;;;3.08;;
61393;SDS011;48555;50.952;-0.120;2023-03-01T10:43:44;6.32;;;3.38;;
61393;SDS011;48555;50.952;-0.120;2023-03-01T10:46:25;7.47;;;3.20;;
61393;SDS011;48555;50.952;-0.120;2023-03-01T10:51:50;4.38;;;2.75;;
61393;SDS011;48555;50.952;-0.120;2023-03-01T10:56:57;4.47;;;2.88;;
61393;SDS011;48555;50.952;-0.120;2023-03-01T11:02:09;6.10;;;2.85;;
61393;SDS011;48555;50.952;-0.120;2023-03-01T11:04:38;4.65;;;3.05;;
61393;SDS011;48555;50.952;-0.120;2023-03-01T11:07:03;4.68;;;2.60;;
61393;SDS011;48555;50.952;-0.120;2023-03-01T11:09:31;4.82;;;2.47;;
61393;SDS011;48555;50.952;-0.120;2023-03-01T11:12:03;4.63;;;2.15;;
61393;SDS011;48555;50.952;-0.120;2023-03-01T11:14:39;3.92;;;2.08;;
61393;SDS011;48555;50.952;-0.120;2023-03-01T11:17:13;4.65;;;2.00;;
61393;SDS011;48555;50.952;-0.120;2023-03-01T11:19:43;3.50;;;2.05;;
61393;SDS011;48555;50.952;-0.120;2023-03-01T11:22:24;4.35;;;2.20;;
61393;SDS011;48555;50.952;-0.120;2023-03-01T11:24:50;4.07;;;2.22;;
61393;SDS011;48555;50.952;-0.120;2023-03-01T11:27:19;5.35;;;2.45;;
61393;SDS011;48555;50.952;-0.120;2023-03-01T11:29:54;4.40;;;2.15;;
61393;SDS011;48555;50.952;-0.120;2023-03-01T11:32:25;3.30;;;2.22;;
61393;SDS011;48555;50.952;-0.120;2023-03-01T11:45:29;3.15;;;1.73;;
61393;SDS011;48555;50.952;-0.120;2023-03-01T11:50:56;5.75;;;1.90;;
61393;SDS011;48555;50.952;-0.120;2023-03-01T11:53:30;4.45;;;2.20;;
61393;SDS011;48555;50.952;-0.120;2023-03-01T12:15:15;4.28;;;2.28;;
61393;SDS011;48555;50.952;-0.120;2023-03-01T12:18:01;3.15;;;1.90;;
61393;SDS011;48555;50.952;-0.120;2023-03-01T12:26:30;2.30;;;1.90;;
61393;SDS011;48555;50.952;-0.120;2023-03-01T12:31:52;3.13;;;2.05;;
61393;SDS011;48555;50.952;-0.120;2023-03-01T12:49:15;3.00;;;1.70;;
61393;SDS011;48555;50.952;-0.120;2023-03-01T12:51:49;2.38;;;1.50;;
61393;SDS011;48555;50.952;-0.120;2023-03-01T12:54:30;1.88;;;1.35;;
61393;SDS011;48555;50.952;-0.120;2023-03-01T12:56:59;2.80;;;1.80;;
61393;SDS011;48555;50.952;-0.120;2023-03-01T13:02:33;2.85;;;1.60;;
61393;SDS011;48555;50.952;-0.120;2023-03-01T13:10:49;3.45;;;1.92;;
61393;SDS011;48555;50.952;-0.120;2023-03-01T13:13:22;3.50;;;2.08;;
61393;SDS011;48555;50.952;-0.120;2023-03-01T13:15:49;3.83;;;1.98;;
61393;SDS011;48555;50.952;-0.120;2023-03-01T13:30:57;3.50;;;1.92;;
61393;SDS011;48555;50.952;-0.120;2023-03-01T13:35:48;2.58;;;1.33;;
61393;SDS011;48555;50.952;-0.120;2023-03-01T13:46:47;2.33;;;0.90;;
61393;SDS011;48555;50.952;-0.120;2023-03-01T13:49:17;1.98;;;0.98;;
61393;SDS011;48555;50.952;-0.120;2023-03-01T13:51:48;1.88;;;1.13;;
61393;SDS011;48555;50.952;-0.120;2023-03-01T13:54:15;2.78;;;1.10;;
61393;SDS011;48555;50.952;-0.120;2023-03-01T13:56:43;1.63;;;1.10;;
61393;SDS011;48555;50.952;-0.120;2023-03-01T13:59:16;3.03;;;0.90;;
61393;SDS011;48555;50.952;-0.120;2023-03-01T14:01:44;2.35;;;1.00;;
61393;SDS011;48555;50.952;-0.120;2023-03-01T14:04:20;1.35;;;0.95;;
61393;SDS011;48555;50.952;-0.120;2023-03-01T14:09:43;2.85;;;1.23;;
61393;SDS011;48555;50.952;-0.120;2023-03-01T14:20:20;1.33;;;1.10;;
61393;SDS011;48555;50.952;-0.120;2023-03-01T14:23:10;3.08;;;1.33;;
61393;SDS011;48555;50.952;-0.120;2023-03-01T14:25:38;3.53;;;1.27;;
61393;SDS011;48555;50.952;-0.120;2023-03-01T14:28:14;2.85;;;1.52;;
61393;SDS011;48555;50.952;-0.120;2023-03-01T14:30:48;1.48;;;1.20;;
61393;SDS011;48555;50.952;-0.120;2023-03-01T14:33:19;1.70;;;1.27;;
61393;SDS011;48555;50.952;-0.120;2023-03-01T14:43:50;1.48;;;1.02;;
61393;SDS011;48555;50.952;-0.120;2023-03-01T14:46:25;2.08;;;1.20;;
61393;SDS011;48555;50.952;-0.120;2023-03-01T14:49:01;2.72;;;1.40;;
61393;SDS011;48555;50.952;-0.120;2023-03-01T14:51:30;2.78;;;1.60;;
61393;SDS011;48555;50.952;-0.120;2023-03-01T14:53:55;2.35;;;1.33;;
61393;SDS011;48555;50.952;-0.120;2023-03-01T14:56:21;1.98;;;1.20;;
61393;SDS011;48555;50.952;-0.120;2023-03-01T14:58:50;1.63;;;1.30;;
61393;SDS011;48555;50.952;-0.120;2023-03-01T15:01:17;2.78;;;1.13;;
61393;SDS011;48555;50.952;-0.120;2023-03-01T15:03:47;2.05;;;1.15;;
61393;SDS011;48555;50.952;-0.120;2023-03-01T15:06:14;2.55;;;1.30;;
61393;SDS011;48555;50.952;-0.120;2023-03-01T15:08:44;1.20;;;0.90;;
61393;SDS011;48555;50.952;-0.120;2023-03-01T15:11:27;3.42;;;1.20;;
61393;SDS011;48555;50.952;-0.120;2023-03-01T15:13:56;2.55;;;1.27;;
61393;SDS011;48555;50.952;-0.120;2023-03-01T15:16:23;1.27;;;0.82;;
61393;SDS011;48555;50.952;-0.120;2023-03-01T15:18:59;2.15;;;1.10;;
61393;SDS011;48555;50.952;-0.120;2023-03-01T15:21:30;2.53;;;1.25;;
61393;SDS011;48555;50.952;-0.120;2023-03-01T15:26:44;1.25;;;0.75;;
61393;SDS011;48555;50.952;-0.120;2023-03-01T15:29:27;2.03;;;1.30;;
61393;SDS011;48555;50.952;-0.120;2023-03-01T15:32:01;2.92;;;1.42;;
61393;SDS011;48555;50.952;-0.120;2023-03-01T15:34:35;1.92;;;1.20;;
61393;SDS011;48555;50.952;-0.120;2023-03-01T15:37:03;16.85;;;10.32;;
61393;SDS011;48555;50.952;-0.120;2023-03-01T15:39:41;13.88;;;9.63;;
61393;SDS011;48555;50.952;-0.120;2023-03-01T15:42:35;5.03;;;2.78;;
61393;SDS011;48555;50.952;-0.120;2023-03-01T15:45:20;2.63;;;1.50;;
61393;SDS011;48555;50.952;-0.120;2023-03-01T15:47:55;2.53;;;1.33;;
61393;SDS011;48555;50.952;-0.120;2023-03-01T15:50:27;2.97;;;1.27;;
61393;SDS011;48555;50.952;-0.120;2023-03-01T15:52:54;2.05;;;1.20;;
61393;SDS011;48555;50.952;-0.120;2023-03-01T15:55:27;4.00;;;2.10;;
61393;SDS011;48555;50.952;-0.120;2023-03-01T15:58:04;3.30;;;2.10;;
61393;SDS011;48555;50.952;-0.120;2023-03-01T16:00:35;3.05;;;1.38;;
61393;SDS011;48555;50.952;-0.120;2023-03-01T16:03:00;3.05;;;1.50;;
61393;SDS011;48555;50.952;-0.120;2023-03-01T16:07:53;3.83;;;2.67;;
61393;SDS011;48555;50.952;-0.120;2023-03-01T16:10:19;3.45;;;2.10;;
61393;SDS011;48555;50.952;-0.120;2023-03-01T16:12:45;2.10;;;1.50;;
61393;SDS011;48555;50.952;-0.120;2023-03-01T16:15:36;2.15;;;1.30;;
61393;SDS011;48555;50.952;-0.120;2023-03-01T16:18:03;5.20;;;1.67;;
61393;SDS011;48555;50.952;-0.120;2023-03-01T16:20:30;2.63;;;1.45;;
61393;SDS011;48555;50.952;-0.120;2023-03-01T16:23:03;2.58;;;1.58;;
61393;SDS011;48555;50.952;-0.120;2023-03-01T16:25:30;3.42;;;1.60;;
61393;SDS011;48555;50.952;-0.120;2023-03-01T16:27:57;4.00;;;2.10;;
61393;SDS011;48555;50.952;-0.120;2023-03-01T16:30:25;6.55;;;4.38;;
61393;SDS011;48555;50.952;-0.120;2023-03-01T16:32:50;3.63;;;2.05;;
61393;SDS011;48555;50.952;-0.120;2023-03-01T16:35:17;2.50;;;1.67;;
61393;SDS011;48555;50.952;-0.120;2023-03-01T16:37:44;4.13;;;1.70;;
61393;SDS011;48555;50.952;-0.120;2023-03-01T16:42:42;4.40;;;1.60;;
61393;SDS011;48555;50.952;-0.120;2023-03-01T16:45:08;5.65;;;2.28;;
61393;SDS011;48555;50.952;-0.120;2023-03-01T16:47:34;2.75;;;1.70;;
61393;SDS011;48555;50.952;-0.120;2023-03-01T16:50:00;4.65;;;2.20;;
61393;SDS011;48555;50.952;-0.120;2023-03-01T16:52:26;17.17;;;12.02;;
61393;SDS011;48555;50.952;-0.120;2023-03-01T16:54:51;26.33;;;20.00;;
61393;SDS011;48555;50.952;-0.120;2023-03-01T16:57:17;8.30;;;4.45;;
61393;SDS011;48555;50.952;-0.120;2023-03-01T16:59:42;3.95;;;2.40;;
61393;SDS011;48555;50.952;-0.120;2023-03-01T17:02:11;3.45;;;1.90;;
61393;SDS011;48555;50.952;-0.120;2023-03-01T17:04:40;2.53;;;1.70;;
61393;SDS011;48555;50.952;-0.120;2023-03-01T17:07:06;3.67;;;1.88;;
61393;SDS011;48555;50.952;-0.120;2023-03-01T17:09:35;1.75;;;1.35;;
61393;SDS011;48555;50.952;-0.120;2023-03-01T17:12:01;2.45;;;1.60;;
61393;SDS011;48555;50.952;-0.120;2023-03-01T17:14:28;2.60;;;1.70;;
61393;SDS011;48555;50.952;-0.120;2023-03-01T17:16:54;4.15;;;2.17;;